createdAt,value
2022-12-11T00:00:28.289Z,68.90
2022-12-11T00:02:56.694Z,68.47
2022-12-11T00:05:24.313Z,73.47
2022-12-11T00:07:51.767Z,73.43
2022-12-11T00:10:19.212Z,80.50
2022-12-11T00:12:46.561Z,71.57
2022-12-11T00:15:14.039Z,69.97
2022-12-11T00:17:41.487Z,78.53
2022-12-11T00:20:09.498Z,75.27
2022-12-11T00:22:36.882Z,76.07
2022-12-11T00:25:04.366Z,69.07
2022-12-11T00:27:31.768Z,67.50
2022-12-11T00:30:00.044Z,75.37
2022-12-11T00:32:28.553Z,75.30
2022-12-11T00:34:56.196Z,92.50
2022-12-11T00:37:23.617Z,83.47
2022-12-11T00:39:51.016Z,77.63
2022-12-11T00:42:18.405Z,66.90
2022-12-11T00:44:45.790Z,72.93
2022-12-11T00:47:13.156Z,68.63
2022-12-11T00:49:45.121Z,71.63
2022-12-11T00:52:17.686Z,75.27
2022-12-11T00:54:45.225Z,72.07
2022-12-11T00:57:12.766Z,66.17
2022-12-11T00:59:40.120Z,77.37
2022-12-11T01:02:07.592Z,85.47
2022-12-11T01:04:36.607Z,74.37
2022-12-11T01:07:04.268Z,77.87
2022-12-11T01:09:50.663Z,74.90
2022-12-11T01:12:18.080Z,73.27
2022-12-11T01:14:45.568Z,79.67
2022-12-11T01:17:13.031Z,68.10
2022-12-11T01:19:40.430Z,73.90
2022-12-11T01:22:07.828Z,74.97
2022-12-11T01:24:35.245Z,70.90
2022-12-11T01:27:02.782Z,76.50
2022-12-11T01:29:30.169Z,69.77
2022-12-11T01:31:57.555Z,68.17
2022-12-11T01:34:24.908Z,71.00
2022-12-11T01:36:53.074Z,66.00
2022-12-11T01:39:20.428Z,65.90
2022-12-11T01:41:47.851Z,70.17
2022-12-11T01:44:15.188Z,67.50
2022-12-11T01:46:43.080Z,66.57
2022-12-11T01:49:12.695Z,69.30
2022-12-11T01:51:52.012Z,58.63
2022-12-11T01:54:21.891Z,63.10
2022-12-11T01:56:50.744Z,71.73
2022-12-11T01:59:19.583Z,66.83
2022-12-11T02:01:51.074Z,64.40
2022-12-11T02:04:19.374Z,65.33
2022-12-11T02:06:48.772Z,66.07
2022-12-11T02:09:17.964Z,63.97
2022-12-11T02:11:45.285Z,66.70
2022-12-11T02:14:18.587Z,73.27
2022-12-11T02:16:56.508Z,63.07
2022-12-11T02:19:33.048Z,70.73
2022-12-11T02:22:02.124Z,66.30
2022-12-11T02:24:32.241Z,70.03
2022-12-11T02:26:59.568Z,63.80
2022-12-11T02:29:30.262Z,61.80
2022-12-11T02:32:03.096Z,68.93
2022-12-11T02:34:34.891Z,63.27
2022-12-11T02:37:09.929Z,65.57
2022-12-11T02:39:39.817Z,70.77
2022-12-11T02:42:07.745Z,64.87
2022-12-11T02:44:35.856Z,68.53
2022-12-11T02:47:04.740Z,68.20
2022-12-11T02:49:32.970Z,65.53
2022-12-11T02:52:01.182Z,71.63
2022-12-11T02:54:31.068Z,68.13
2022-12-11T02:57:02.547Z,66.77
2022-12-11T02:59:33.666Z,72.17
2022-12-11T03:02:01.391Z,63.27
2022-12-11T03:04:29.417Z,68.20
2022-12-11T03:07:00.143Z,69.03
2022-12-11T03:09:29.205Z,77.23
2022-12-11T03:11:56.605Z,69.27
2022-12-11T03:14:24.016Z,67.27
2022-12-11T03:17:14.782Z,65.70
2022-12-11T03:19:45.736Z,78.90
2022-12-11T03:22:16.379Z,74.53
2022-12-11T03:24:48.523Z,65.70
2022-12-11T03:27:34.240Z,73.63
2022-12-11T03:30:04.514Z,74.93
2022-12-11T03:32:50.214Z,71.20
2022-12-11T03:35:27.131Z,71.10
2022-12-11T03:37:55.680Z,67.83
2022-12-11T03:40:23.769Z,81.03
2022-12-11T03:42:52.248Z,78.87
2022-12-11T03:45:21.400Z,70.33
2022-12-11T03:47:49.822Z,81.87
2022-12-11T03:50:18.902Z,77.07
2022-12-11T03:52:47.424Z,107.57
2022-12-11T03:55:15.801Z,92.47
2022-12-11T03:57:43.603Z,92.43
2022-12-11T04:00:13.043Z,84.23
2022-12-11T04:02:40.887Z,88.63
2022-12-11T04:05:08.658Z,93.60
2022-12-11T04:07:36.585Z,102.60
2022-12-11T04:10:05.211Z,95.00
2022-12-11T04:12:32.562Z,106.87
2022-12-11T04:15:02.779Z,105.70
2022-12-11T04:17:51.514Z,103.50
2022-12-11T04:20:37.478Z,103.97
2022-12-11T04:23:24.486Z,94.57
2022-12-11T04:25:52.027Z,104.03
2022-12-11T04:28:19.420Z,100.30
2022-12-11T04:30:50.178Z,108.90
2022-12-11T04:33:17.653Z,105.07
2022-12-11T04:35:45.203Z,112.93
2022-12-11T04:38:12.588Z,114.83
2022-12-11T04:40:39.942Z,118.70
2022-12-11T04:43:07.367Z,107.27
2022-12-11T04:45:35.166Z,106.37
2022-12-11T04:48:02.591Z,111.20
2022-12-11T04:50:30.036Z,119.67
2022-12-11T04:52:57.688Z,104.37
2022-12-11T04:55:25.246Z,121.03
2022-12-11T04:57:52.609Z,109.17
2022-12-11T05:00:20.091Z,114.43
2022-12-11T05:02:47.507Z,119.70
2022-12-11T05:05:15.012Z,115.30
2022-12-11T05:07:42.821Z,116.80
2022-12-11T05:10:10.494Z,111.50
2022-12-11T05:12:37.863Z,113.37
2022-12-11T05:15:05.398Z,136.33
2022-12-11T05:17:32.745Z,130.90
2022-12-11T05:20:00.190Z,119.97
2022-12-11T05:22:27.576Z,117.50
2022-12-11T05:24:54.982Z,128.63
2022-12-11T05:27:22.349Z,134.40
2022-12-11T05:29:51.665Z,127.80
2022-12-11T05:32:21.045Z,121.17
2022-12-11T05:34:48.480Z,129.57
2022-12-11T05:37:15.801Z,136.23
2022-12-11T05:39:43.177Z,142.63
2022-12-11T05:42:10.624Z,137.67
2022-12-11T05:44:38.115Z,118.10
2022-12-11T05:47:05.558Z,141.20
2022-12-11T05:49:32.942Z,142.77
2022-12-11T05:52:00.269Z,147.77
2022-12-11T05:54:27.670Z,144.37
2022-12-11T05:56:55.076Z,144.33
2022-12-11T05:59:22.465Z,157.07
2022-12-11T06:01:49.880Z,130.77
2022-12-11T06:04:17.372Z,141.23
2022-12-11T06:06:44.792Z,133.43
2022-12-11T06:09:14.431Z,153.60
2022-12-11T06:11:41.829Z,140.07
2022-12-11T06:14:10.890Z,161.27
2022-12-11T06:16:38.494Z,131.47
2022-12-11T06:19:06.105Z,137.93
2022-12-11T06:21:34.115Z,137.50
2022-12-11T06:24:02.971Z,131.97
2022-12-11T06:26:31.977Z,155.40
2022-12-11T06:28:59.515Z,124.10
2022-12-11T06:31:27.236Z,141.47
2022-12-11T06:33:54.785Z,138.90
2022-12-11T06:36:24.064Z,132.17
2022-12-11T06:38:51.775Z,142.40
2022-12-11T06:41:19.199Z,128.30
2022-12-11T06:43:46.647Z,143.53
2022-12-11T06:46:15.274Z,145.63
2022-12-11T06:48:43.161Z,144.93
2022-12-11T06:51:12.367Z,137.20
2022-12-11T06:53:40.098Z,136.60
2022-12-11T06:56:15.255Z,127.90
2022-12-11T06:58:44.244Z,133.10
2022-12-11T07:01:29.872Z,125.10
2022-12-11T07:03:58.806Z,142.43
2022-12-11T07:06:27.585Z,134.97
2022-12-11T07:08:55.239Z,126.13
2022-12-11T07:11:22.646Z,126.13
2022-12-11T07:13:50.234Z,144.60
2022-12-11T07:16:18.267Z,130.60
2022-12-11T07:18:49.681Z,163.23
2022-12-11T07:21:17.218Z,138.17
2022-12-11T07:23:44.689Z,154.30
2022-12-11T07:26:14.179Z,143.67
2022-12-11T07:28:41.893Z,145.63
2022-12-11T07:31:10.214Z,159.07
2022-12-11T07:33:37.883Z,134.50
2022-12-11T07:36:07.889Z,147.83
2022-12-11T07:38:35.735Z,145.70
2022-12-11T07:41:04.634Z,146.67
2022-12-11T07:43:32.234Z,145.40
2022-12-11T07:46:03.549Z,148.97
2022-12-11T07:48:31.409Z,147.13
2022-12-11T07:51:08.631Z,140.73
2022-12-11T07:53:36.160Z,151.03
2022-12-11T07:56:03.938Z,129.70
2022-12-11T07:58:31.437Z,159.27
2022-12-11T08:00:58.906Z,149.57
2022-12-11T08:03:26.350Z,142.17
2022-12-11T08:05:54.116Z,117.93
2022-12-11T08:08:21.633Z,125.67
2022-12-11T08:10:49.218Z,131.57
2022-12-11T08:13:16.654Z,130.03
2022-12-11T08:15:44.047Z,103.77
2022-12-11T08:18:11.431Z,118.37
2022-12-11T08:20:39.653Z,101.37
2022-12-11T08:23:07.262Z,114.00
2022-12-11T08:25:34.730Z,112.87
2022-12-11T08:28:02.343Z,120.53
2022-12-11T08:30:30.034Z,118.97
2022-12-11T08:32:57.502Z,100.13
2022-12-11T08:35:25.058Z,118.77
2022-12-11T08:37:52.965Z,108.43
2022-12-11T08:40:20.437Z,111.20
2022-12-11T08:42:47.877Z,107.83
2022-12-11T08:45:15.372Z,109.00
2022-12-11T08:47:43.036Z,108.47
2022-12-11T08:50:10.739Z,117.30
2022-12-11T08:52:38.140Z,110.93
2022-12-11T08:55:05.879Z,117.90
2022-12-11T08:57:33.253Z,95.80
2022-12-11T09:00:00.883Z,102.03
2022-12-11T09:02:28.372Z,115.77
2022-12-11T09:04:55.833Z,109.03
2022-12-11T09:07:23.289Z,115.03
2022-12-11T09:09:50.709Z,102.20
2022-12-11T09:12:18.095Z,97.10
2022-12-11T09:14:45.575Z,104.77
2022-12-11T09:17:13.044Z,98.80
2022-12-11T09:19:40.540Z,98.13
2022-12-11T09:22:09.945Z,98.10
2022-12-11T09:24:37.662Z,107.30
2022-12-11T09:27:06.183Z,127.53
2022-12-11T09:29:33.679Z,105.93
2022-12-11T09:32:04.600Z,121.20
2022-12-11T09:34:32.261Z,104.70
2022-12-11T09:36:59.679Z,96.97
2022-12-11T09:39:27.185Z,90.20
2022-12-11T09:41:57.664Z,93.73
2022-12-11T09:44:31.790Z,95.00
2022-12-11T09:46:59.572Z,100.33
2022-12-11T09:49:38.952Z,94.10
2022-12-11T09:52:06.444Z,80.83
2022-12-11T09:54:34.211Z,93.07
2022-12-11T09:57:04.647Z,105.47
2022-12-11T09:59:38.247Z,89.93
2022-12-11T10:02:06.283Z,87.80
2022-12-11T10:04:36.982Z,100.67
2022-12-11T10:07:14.622Z,96.37
2022-12-11T10:10:00.890Z,95.50
2022-12-11T10:12:28.490Z,97.20
2022-12-11T10:14:56.078Z,103.03
2022-12-11T10:17:29.585Z,76.27
2022-12-11T10:20:05.141Z,82.90
2022-12-11T10:22:33.554Z,96.93
2022-12-11T10:25:11.619Z,92.47
2022-12-11T10:27:40.539Z,86.50
2022-12-11T10:30:14.961Z,89.63
2022-12-11T10:32:48.540Z,90.90
2022-12-11T10:35:42.402Z,87.27
2022-12-11T10:38:15.216Z,85.27
2022-12-11T10:40:44.279Z,77.00
2022-12-11T10:43:11.797Z,89.17
2022-12-11T10:45:39.437Z,90.07
2022-12-11T10:48:08.795Z,77.47
2022-12-11T10:50:36.405Z,82.83
2022-12-11T10:53:03.961Z,89.27
2022-12-11T10:55:45.042Z,65.47
2022-12-11T10:58:14.525Z,77.70
2022-12-11T11:00:42.440Z,77.77
2022-12-11T11:03:21.847Z,71.90
2022-12-11T11:05:50.676Z,74.07
2022-12-11T11:08:22.747Z,68.83
2022-12-11T11:10:54.677Z,68.77
2022-12-11T11:13:24.087Z,78.77
2022-12-11T11:15:59.220Z,73.53
2022-12-11T11:18:28.068Z,72.07
2022-12-11T11:20:56.056Z,78.27
2022-12-11T11:23:24.581Z,76.50
2022-12-11T11:25:54.014Z,64.90
2022-12-11T11:28:26.480Z,73.63
2022-12-11T11:31:03.839Z,75.27
2022-12-11T11:33:32.262Z,72.03
2022-12-11T11:36:02.492Z,87.63
2022-12-11T11:38:38.360Z,80.97
2022-12-11T11:41:18.163Z,76.77
2022-12-11T11:43:47.637Z,82.10
2022-12-11T11:46:18.512Z,70.87
2022-12-11T11:49:01.184Z,66.73
2022-12-11T11:51:34.658Z,81.10
2022-12-11T11:54:03.983Z,78.63
2022-12-11T11:56:36.522Z,73.33
2022-12-11T11:59:08.235Z,69.43
2022-12-11T12:01:35.721Z,84.90
2022-12-11T12:04:04.372Z,79.40
2022-12-11T12:06:34.639Z,78.10
2022-12-11T12:09:09.153Z,74.53
2022-12-11T12:11:37.573Z,85.57
2022-12-11T12:14:22.488Z,80.47
2022-12-11T12:16:53.736Z,71.53
2022-12-11T12:19:28.542Z,87.37
2022-12-11T12:21:56.146Z,84.20
2022-12-11T12:24:29.553Z,87.70
2022-12-11T12:26:59.872Z,71.43
2022-12-11T12:29:27.247Z,65.83
2022-12-11T12:32:01.653Z,66.77
2022-12-11T12:34:32.048Z,69.67
2022-12-11T12:37:00.318Z,64.00
2022-12-11T12:39:50.041Z,62.93
2022-12-11T12:42:43.869Z,56.33
2022-12-11T12:45:17.310Z,65.23
2022-12-11T12:47:50.399Z,68.13
2022-12-11T12:50:25.644Z,67.53
2022-12-11T12:52:53.581Z,72.60
2022-12-11T12:55:23.044Z,73.70
2022-12-11T12:57:50.463Z,71.10
2022-12-11T13:00:37.880Z,67.10
2022-12-11T13:03:14.653Z,69.97
2022-12-11T13:05:44.160Z,61.37
2022-12-11T13:08:11.874Z,70.77
2022-12-11T13:10:40.774Z,69.20
2022-12-11T13:13:26.852Z,73.93
2022-12-11T13:15:54.331Z,66.67
2022-12-11T13:18:33.985Z,68.17
2022-12-11T13:21:01.570Z,60.97
2022-12-11T13:23:35.973Z,59.43
2022-12-11T13:26:04.622Z,71.70
2022-12-11T13:28:34.586Z,64.93
2022-12-11T13:31:26.031Z,64.23
2022-12-11T13:33:55.380Z,66.53
2022-12-11T13:36:35.830Z,74.63
2022-12-11T13:39:10.914Z,71.43
2022-12-11T13:41:38.762Z,68.33
2022-12-11T13:44:07.222Z,69.17
2022-12-11T13:46:36.059Z,70.43
2022-12-11T13:49:06.862Z,72.80
2022-12-11T13:51:36.126Z,66.40
2022-12-11T13:54:17.324Z,53.73
2022-12-11T13:56:58.508Z,60.50
2022-12-11T13:59:27.867Z,56.63
2022-12-11T14:01:57.001Z,56.73
2022-12-11T14:04:24.940Z,64.00
2022-12-11T14:06:52.458Z,61.70
2022-12-11T14:09:22.253Z,70.80
2022-12-11T14:11:56.411Z,62.90
2022-12-11T14:14:24.185Z,64.20
2022-12-11T14:16:52.899Z,60.70
2022-12-11T14:19:21.658Z,63.13
2022-12-11T14:21:59.353Z,55.93
2022-12-11T14:24:27.059Z,65.20
2022-12-11T14:26:55.313Z,61.73
2022-12-11T14:29:27.071Z,55.67
2022-12-11T14:31:54.944Z,56.13
2022-12-11T14:34:27.787Z,55.73
2022-12-11T14:36:55.566Z,51.00
2022-12-11T14:39:32.145Z,57.77
2022-12-11T14:42:05.867Z,61.87
2022-12-11T14:44:36.057Z,59.00
2022-12-11T14:47:05.166Z,60.27
2022-12-11T14:49:35.305Z,55.20
2022-12-11T14:52:03.759Z,59.17
2022-12-11T14:54:36.768Z,57.73
2022-12-11T14:57:06.602Z,53.43
2022-12-11T14:59:39.607Z,63.47
2022-12-11T15:02:26.653Z,53.07
2022-12-11T15:05:14.983Z,64.40
2022-12-11T15:07:43.965Z,60.83
2022-12-11T15:10:24.489Z,55.90
2022-12-11T15:12:52.172Z,50.70
2022-12-11T15:15:19.805Z,55.63
2022-12-11T15:17:52.544Z,62.73
2022-12-11T15:20:27.846Z,58.73
2022-12-11T15:22:57.604Z,52.73
2022-12-11T15:25:26.904Z,48.53
2022-12-11T15:27:55.442Z,53.97
2022-12-11T15:30:29.044Z,57.77
2022-12-11T15:33:02.536Z,55.17
2022-12-11T15:35:29.903Z,56.40
2022-12-11T15:37:58.376Z,52.97
2022-12-11T15:40:26.099Z,58.07
2022-12-11T15:42:54.941Z,52.80
2022-12-11T15:45:23.612Z,65.30
2022-12-11T15:47:51.373Z,57.83
2022-12-11T15:50:30.417Z,67.43
2022-12-11T15:52:58.909Z,59.97
2022-12-11T15:55:28.019Z,73.17
2022-12-11T15:58:00.220Z,62.73
2022-12-11T16:00:28.202Z,73.73
2022-12-11T16:02:56.880Z,67.07
2022-12-11T16:05:24.615Z,66.63
2022-12-11T16:07:53.989Z,63.50
2022-12-11T16:10:22.544Z,57.63
2022-12-11T16:12:50.477Z,69.37
2022-12-11T16:15:23.478Z,64.33
2022-12-11T16:17:51.578Z,67.67
2022-12-11T16:20:19.003Z,67.07
2022-12-11T16:22:46.411Z,66.10
2022-12-11T16:25:14.138Z,74.37
2022-12-11T16:27:41.752Z,71.97
2022-12-11T16:30:10.701Z,60.07
2022-12-11T16:32:38.080Z,71.93
2022-12-11T16:35:05.683Z,66.87
2022-12-11T16:37:33.045Z,80.30
2022-12-11T16:40:00.473Z,64.73
2022-12-11T16:42:27.844Z,66.93
2022-12-11T16:44:55.244Z,78.07
2022-12-11T16:47:22.614Z,79.17
2022-12-11T16:49:51.132Z,77.87
2022-12-11T16:52:22.173Z,69.57
2022-12-11T16:54:49.827Z,63.90
2022-12-11T16:57:17.218Z,72.83
2022-12-11T16:59:44.585Z,67.63
2022-12-11T17:02:12.349Z,70.53
2022-12-11T17:04:40.041Z,75.53
2022-12-11T17:07:07.541Z,67.77
2022-12-11T17:09:35.260Z,67.47
2022-12-11T17:12:02.997Z,68.80
2022-12-11T17:14:30.446Z,64.33
2022-12-11T17:16:57.852Z,65.07
2022-12-11T17:19:25.268Z,71.40
2022-12-11T17:21:54.077Z,64.90
2022-12-11T17:24:21.469Z,81.77
2022-12-11T17:26:48.822Z,70.93
2022-12-11T17:29:16.177Z,70.53
2022-12-11T17:31:43.524Z,67.77
2022-12-11T17:34:10.929Z,69.63
2022-12-11T17:36:38.306Z,68.67
2022-12-11T17:39:05.714Z,69.37
2022-12-11T17:41:33.086Z,70.33
2022-12-11T17:44:00.495Z,66.50
2022-12-11T17:46:27.875Z,81.07
2022-12-11T17:48:56.547Z,59.57
2022-12-11T17:51:24.603Z,70.03
2022-12-11T17:53:53.520Z,81.47
2022-12-11T17:56:20.895Z,73.67
2022-12-11T17:58:48.781Z,68.90
2022-12-11T18:01:16.203Z,71.73
2022-12-11T18:03:43.648Z,69.57
2022-12-11T18:06:13.293Z,73.17
2022-12-11T18:08:40.896Z,84.70
2022-12-11T18:11:09.216Z,83.70
2022-12-11T18:13:36.661Z,77.93
2022-12-11T18:16:05.406Z,94.80
2022-12-11T18:18:33.336Z,85.83
2022-12-11T18:21:01.193Z,96.10
2022-12-11T18:23:28.951Z,92.40
2022-12-11T18:25:56.384Z,92.30
2022-12-11T18:28:23.761Z,92.80
2022-12-11T18:30:51.139Z,91.73
2022-12-11T18:33:18.526Z,94.80
2022-12-11T18:35:45.928Z,111.70
2022-12-11T18:38:13.326Z,103.93
2022-12-11T18:40:40.759Z,99.43
2022-12-11T18:43:08.139Z,97.00
2022-12-11T18:45:35.539Z,93.23
2022-12-11T18:48:02.870Z,92.77
2022-12-11T18:50:30.278Z,84.47
2022-12-11T18:52:58.219Z,93.40
2022-12-11T18:55:25.621Z,91.07
2022-12-11T18:57:53.378Z,86.70
2022-12-11T19:00:22.122Z,91.20
2022-12-11T19:02:52.731Z,103.43
2022-12-11T19:05:20.203Z,90.83
2022-12-11T19:07:47.697Z,100.53
2022-12-11T19:10:15.164Z,92.37
2022-12-11T19:12:42.985Z,84.23
2022-12-11T19:15:11.247Z,98.47
2022-12-11T19:17:38.868Z,92.77
2022-12-11T19:20:32.333Z,101.83
2022-12-11T19:22:54.755Z,97.63
2022-12-11T19:25:22.221Z,91.03
2022-12-11T19:27:50.436Z,105.10
2022-12-11T19:30:17.839Z,91.27
2022-12-11T19:32:47.306Z,93.60
2022-12-11T19:35:16.663Z,88.97
2022-12-11T19:37:44.045Z,93.63
2022-12-11T19:40:11.573Z,94.50
2022-12-11T19:42:39.157Z,102.20
2022-12-11T19:45:06.921Z,93.13
2022-12-11T19:47:35.114Z,99.47
2022-12-11T19:50:02.612Z,99.70
2022-12-11T19:52:29.999Z,105.37
2022-12-11T19:55:01.771Z,106.23
2022-12-11T19:57:29.236Z,103.30
2022-12-11T19:59:57.484Z,101.57
2022-12-11T20:02:25.018Z,105.27
2022-12-11T20:04:52.451Z,126.10
2022-12-11T20:07:20.267Z,161.60
2022-12-11T20:09:47.754Z,116.03
2022-12-11T20:12:15.402Z,113.20
2022-12-11T20:14:42.848Z,99.93
2022-12-11T20:17:12.844Z,114.73
2022-12-11T20:19:41.338Z,100.13
2022-12-11T20:22:09.326Z,103.47
2022-12-11T20:24:37.172Z,102.17
2022-12-11T20:27:06.086Z,118.80
2022-12-11T20:29:40.562Z,96.93
2022-12-11T20:32:11.332Z,100.33
2022-12-11T20:34:39.067Z,105.60
2022-12-11T20:37:07.744Z,108.38
2022-12-11T20:39:35.698Z,111.90
2022-12-11T20:42:04.969Z,94.53
2022-12-11T20:44:32.996Z,98.50
2022-12-11T20:47:00.451Z,104.37
2022-12-11T20:49:27.861Z,99.27
2022-12-11T20:51:56.417Z,97.90
2022-12-11T20:54:23.980Z,109.07
2022-12-11T20:56:51.517Z,95.30
2022-12-11T20:59:19.478Z,83.63
2022-12-11T21:01:46.991Z,87.73
2022-12-11T21:04:14.400Z,98.60
2022-12-11T21:06:42.065Z,82.07
2022-12-11T21:09:12.933Z,79.90
2022-12-11T21:11:41.195Z,82.23
2022-12-11T21:14:08.683Z,76.50
2022-12-11T21:16:36.804Z,80.73
2022-12-11T21:19:05.323Z,79.60
2022-12-11T21:21:33.303Z,88.53
2022-12-11T21:24:00.703Z,80.57
2022-12-11T21:26:28.076Z,78.27
2022-12-11T21:28:55.452Z,74.17
2022-12-11T21:31:22.882Z,75.80
2022-12-11T21:33:51.437Z,79.73
2022-12-11T21:36:19.390Z,85.70
2022-12-11T21:38:47.897Z,84.20
2022-12-11T21:41:19.688Z,88.60
2022-12-11T21:44:41.030Z,75.43
2022-12-11T21:46:35.438Z,84.83
2022-12-11T21:49:02.927Z,93.07
2022-12-11T21:51:36.904Z,94.77
2022-12-11T21:54:06.666Z,88.67
2022-12-11T21:56:34.178Z,91.53
2022-12-11T21:59:01.890Z,81.93
2022-12-11T22:01:31.444Z,85.70
2022-12-11T22:03:59.074Z,88.00
2022-12-11T22:06:26.478Z,93.43
2022-12-11T22:08:54.199Z,81.93
2022-12-11T22:11:23.818Z,88.57
2022-12-11T22:13:51.177Z,93.70
2022-12-11T22:16:18.990Z,87.67
2022-12-11T22:18:46.632Z,82.17
2022-12-11T22:21:14.661Z,82.23
2022-12-11T22:23:42.716Z,81.80
2022-12-11T22:26:12.845Z,82.70
2022-12-11T22:28:40.258Z,89.47
2022-12-11T22:31:11.133Z,121.43
2022-12-11T22:33:38.687Z,89.93
2022-12-11T22:36:06.593Z,86.57
2022-12-11T22:38:35.042Z,95.03
2022-12-11T22:41:04.547Z,85.27
2022-12-11T22:43:31.878Z,85.17
2022-12-11T22:45:59.281Z,83.47
2022-12-11T22:48:27.402Z,92.30
2022-12-11T22:50:54.885Z,102.17
2022-12-11T22:53:22.337Z,92.00
2022-12-11T22:55:49.746Z,84.20
2022-12-11T22:58:21.578Z,93.47
2022-12-11T23:00:49.355Z,95.57
2022-12-11T23:03:16.960Z,99.40
2022-12-11T23:05:44.452Z,94.83
2022-12-11T23:08:11.944Z,83.40
2022-12-11T23:10:42.668Z,94.47
2022-12-11T23:13:10.092Z,89.77
2022-12-11T23:15:37.757Z,103.27
2022-12-11T23:18:05.329Z,98.83
2022-12-11T23:20:32.808Z,94.97
2022-12-11T23:23:00.215Z,86.17
2022-12-11T23:25:28.573Z,94.73
2022-12-11T23:27:56.240Z,88.67
2022-12-11T23:30:24.010Z,94.30
2022-12-11T23:32:51.439Z,99.07
2022-12-11T23:35:18.884Z,94.37
2022-12-11T23:37:46.555Z,93.90
2022-12-11T23:40:15.734Z,97.00
2022-12-11T23:42:43.154Z,91.23
2022-12-11T23:45:10.895Z,101.37
2022-12-11T23:47:38.784Z,97.93
2022-12-11T23:50:06.503Z,105.43
2022-12-11T23:52:33.961Z,89.33
2022-12-11T23:55:01.780Z,105.60
2022-12-11T23:57:29.235Z,102.23
2022-12-11T23:59:56.618Z,100.30
